Time;durP1;ratioP1;P1;durP2;ratioP2;P2;SDS_P1;SDS_P2;PMS_P1;PMS_P2;Temp;Humidity;BMP_temperature;BMP_pressure;BME280_temperature;BME280_humidity;BME280_pressure;Samples;Min_cycle;Max_cycle;Signal;HPM_P1;HPM_P2
2022/10/30 00:01:09;;;;;;;19.45;8.15;;;10.70;99.90;;;;;;5055526;28;20029;-89
2022/10/30 00:03:35;;;;;;;21.92;8.75;;;10.70;99.90;;;;;;5055753;28;20090;-89
2022/10/30 00:06:04;;;;;;;15.30;6.93;;;10.70;99.90;;;;;;5055477;28;20032;-89
2022/10/30 00:08:32;;;;;;;19.10;7.40;;;10.70;99.90;;;;;;5055371;28;20462;-89
2022/10/30 00:11:05;;;;;;;21.10;8.18;;;10.70;99.90;;;;;;5054042;28;20360;-88
2022/10/30 00:13:30;;;;;;;16.08;6.88;;;10.60;99.90;;;;;;5055616;28;20025;-88
2022/10/30 00:15:56;;;;;;;25.25;7.47;;;10.60;99.90;;;;;;5070811;28;20098;-88
2022/10/30 00:18:21;;;;;;;20.15;7.63;;;10.60;99.90;;;;;;5055111;28;20449;-89
2022/10/30 00:20:48;;;;;;;13.77;7.40;;;10.60;99.90;;;;;;5056649;28;20021;-89
2022/10/30 00:23:13;;;;;;;26.15;7.70;;;10.60;99.90;;;;;;5054976;28;20036;-89
2022/10/30 00:25:39;;;;;;;17.73;7.20;;;10.60;99.90;;;;;;5054746;28;20017;-89
2022/10/30 00:28:06;;;;;;;29.10;11.57;;;10.60;99.90;;;;;;5055941;28;20354;-89
2022/10/30 00:30:33;;;;;;;21.80;9.57;;;10.60;99.90;;;;;;5055040;28;20070;-89
2022/10/30 00:32:58;;;;;;;19.73;8.27;;;10.60;99.90;;;;;;5071086;28;20361;-88
2022/10/30 00:35:24;;;;;;;13.23;6.82;;;10.60;99.90;;;;;;5054937;28;20032;-89
2022/10/30 00:37:49;;;;;;;15.93;6.35;;;10.60;99.90;;;;;;5054747;28;20033;-89
2022/10/30 00:40:16;;;;;;;23.60;6.85;;;10.50;99.90;;;;;;5055082;28;20029;-88
2022/10/30 00:42:42;;;;;;;18.90;7.00;;;10.50;99.90;;;;;;5055033;28;20025;-89
2022/10/30 00:45:11;;;;;;;17.17;9.00;;;10.50;99.90;;;;;;5054779;28;20100;-89
2022/10/30 00:47:42;;;;;;;17.10;7.10;;;10.50;99.90;;;;;;5054571;28;20025;-89
2022/10/30 00:50:13;;;;;;;19.35;6.93;;;10.50;99.90;;;;;;5054745;28;20071;-89
2022/10/30 00:52:53;;;;;;;18.75;6.53;;;10.50;99.90;;;;;;5054844;28;20052;-89
2022/10/30 00:55:23;;;;;;;18.05;7.43;;;10.40;99.90;;;;;;5055362;28;20160;-89
2022/10/30 00:57:49;;;;;;;14.63;7.45;;;10.40;99.90;;;;;;5056352;28;20033;-88
2022/10/30 01:00:17;;;;;;;19.15;7.18;;;10.40;99.90;;;;;;5054774;28;20094;-88
2022/10/30 01:02:43;;;;;;;16.55;6.85;;;10.30;99.90;;;;;;5054700;28;20099;-88
2022/10/30 01:05:13;;;;;;;18.48;6.82;;;10.30;99.90;;;;;;5054722;28;20021;-88
2022/10/30 01:07:38;;;;;;;15.27;6.20;;;10.30;99.90;;;;;;5054702;28;20029;-87
2022/10/30 01:10:04;;;;;;;21.67;8.83;;;10.20;99.90;;;;;;5065034;28;20022;-88
2022/10/30 01:12:30;;;;;;;16.77;6.70;;;10.20;99.90;;;;;;5034356;28;20030;-88
2022/10/30 01:14:58;;;;;;;14.53;6.33;;;10.20;99.90;;;;;;5034437;28;20156;-88
2022/10/30 01:17:44;;;;;;;17.83;6.53;;;10.20;99.90;;;;;;5034153;28;20163;-88
2022/10/30 01:20:41;;;;;;;18.07;6.73;;;10.20;99.90;;;;;;5034330;28;20116;-88
2022/10/30 01:23:30;;;;;;;15.38;6.72;;;10.20;99.90;;;;;;5022365;28;20474;-88
2022/10/30 01:26:08;;;;;;;15.43;6.78;;;10.20;99.90;;;;;;5034740;28;20075;-88
2022/10/30 01:28:49;;;;;;;18.85;7.65;;;10.20;99.90;;;;;;5034678;28;20021;-88
2022/10/30 01:31:32;;;;;;;17.55;6.10;;;10.10;99.90;;;;;;5032950;28;20076;-88
2022/10/30 01:34:16;;;;;;;18.45;7.50;;;10.20;99.90;;;;;;5034428;28;20026;-89
2022/10/30 01:36:48;;;;;;;14.88;7.15;;;10.20;99.90;;;;;;5034309;28;20053;-88
2022/10/30 01:39:25;;;;;;;15.90;6.50;;;10.10;99.90;;;;;;5034199;28;20037;-88
2022/10/30 01:41:52;;;;;;;15.00;6.47;;;10.10;99.90;;;;;;5034237;28;20087;-88
2022/10/30 01:44:27;;;;;;;18.67;7.30;;;10.10;99.90;;;;;;5033867;28;20058;-88
2022/10/30 01:47:24;;;;;;;23.05;6.53;;;10.10;99.90;;;;;;5034143;28;20044;-89
2022/10/30 01:50:06;;;;;;;22.90;6.87;;;10.10;99.90;;;;;;5034112;28;20022;-88
2022/10/30 01:52:42;;;;;;;15.80;6.70;;;10.10;99.90;;;;;;5031314;28;20147;-85
2022/10/30 01:55:26;;;;;;;24.70;6.95;;;10.10;99.90;;;;;;5031411;28;20021;-84
2022/10/30 01:58:08;;;;;;;20.10;7.03;;;10.00;99.90;;;;;;5031216;28;20176;-85
2022/10/30 02:00:36;;;;;;;20.13;7.57;;;10.00;99.90;;;;;;5031300;28;20025;-84
2022/10/30 02:03:04;;;;;;;19.33;7.10;;;10.00;99.90;;;;;;5031211;28;20347;-85
2022/10/30 02:05:40;;;;;;;12.50;6.10;;;10.00;99.90;;;;;;5031449;28;20527;-84
2022/10/30 02:08:06;;;;;;;16.33;6.40;;;9.90;99.90;;;;;;5029876;28;20110;-84
2022/10/30 02:10:34;;;;;;;14.27;6.00;;;9.90;99.90;;;;;;5031401;28;20075;-84
2022/10/30 02:13:00;;;;;;;20.23;7.10;;;9.90;99.90;;;;;;5031130;28;20068;-84
2022/10/30 02:15:26;;;;;;;17.80;6.57;;;9.90;99.90;;;;;;5034542;28;20155;-88
2022/10/30 02:17:54;;;;;;;13.60;5.50;;;9.90;99.90;;;;;;5053321;28;20025;-88
2022/10/30 02:20:20;;;;;;;14.00;5.87;;;9.80;99.90;;;;;;5052842;28;20025;-88
2022/10/30 02:22:46;;;;;;;15.07;5.90;;;9.80;99.90;;;;;;5053097;28;20385;-88
2022/10/30 02:25:12;;;;;;;16.43;6.50;;;9.80;99.90;;;;;;5053057;28;20114;-88
2022/10/30 02:27:38;;;;;;;17.43;6.40;;;9.80;99.90;;;;;;5052790;28;20502;-88
2022/10/30 02:30:04;;;;;;;23.57;6.90;;;9.80;99.90;;;;;;5051267;28;20028;-88
2022/10/30 02:32:30;;;;;;;16.07;6.20;;;9.90;99.90;;;;;;5042737;28;20025;-88
2022/10/30 02:34:55;;;;;;;18.13;7.00;;;9.90;99.90;;;;;;5052488;28;20363;-88
2022/10/30 02:37:23;;;;;;;16.67;6.53;;;9.90;99.90;;;;;;5052405;28;20029;-88
2022/10/30 02:39:49;;;;;;;20.27;6.17;;;9.90;99.90;;;;;;5052005;28;20028;-88
2022/10/30 02:42:14;;;;;;;21.47;6.70;;;9.80;99.90;;;;;;5050931;28;20017;-85
2022/10/30 02:44:40;;;;;;;25.93;8.60;;;9.80;99.90;;;;;;5049350;28;20032;-84
2022/10/30 02:47:05;;;;;;;14.40;6.60;;;9.80;99.90;;;;;;5056143;28;20596;-84
2022/10/30 02:49:31;;;;;;;18.30;6.77;;;9.70;99.90;;;;;;5057049;28;20037;-84
2022/10/30 02:51:57;;;;;;;17.37;6.73;;;9.70;99.90;;;;;;5057066;28;20127;-85
2022/10/30 02:54:22;;;;;;;16.67;6.57;;;9.60;99.90;;;;;;5057640;28;20040;-85
2022/10/30 02:56:48;;;;;;;17.77;7.07;;;9.60;99.90;;;;;;5058973;28;20103;-88
2022/10/30 02:59:13;;;;;;;16.17;6.30;;;9.60;99.90;;;;;;5059236;28;20115;-88
2022/10/30 03:01:39;;;;;;;17.50;6.57;;;9.60;99.90;;;;;;5059179;28;20032;-88
2022/10/30 03:04:04;;;;;;;16.53;6.83;;;9.60;99.90;;;;;;5058902;28;20029;-88
2022/10/30 03:06:30;;;;;;;15.60;6.50;;;9.50;99.90;;;;;;5059193;28;20021;-88
2022/10/30 03:08:55;;;;;;;15.27;6.40;;;9.50;99.90;;;;;;5057649;28;20572;-88
2022/10/30 03:11:21;;;;;;;17.57;6.03;;;9.50;99.90;;;;;;5058681;28;20076;-88
2022/10/30 03:13:47;;;;;;;22.17;6.80;;;9.50;99.90;;;;;;5059234;28;20039;-88
2022/10/30 03:16:18;;;;;;;13.77;6.60;;;9.50;99.90;;;;;;5058691;28;20025;-88
2022/10/30 03:18:44;;;;;;;19.57;6.77;;;9.50;99.90;;;;;;5058749;28;20082;-88
2022/10/30 03:21:12;;;;;;;16.57;6.20;;;9.50;99.90;;;;;;5059203;28;20032;-88
2022/10/30 03:23:38;;;;;;;16.37;6.47;;;9.40;99.90;;;;;;5059140;28;20516;-88
2022/10/30 03:26:04;;;;;;;19.03;6.87;;;9.40;99.90;;;;;;5058534;28;20104;-87
2022/10/30 03:28:31;;;;;;;18.97;7.10;;;9.40;99.90;;;;;;5058892;28;20082;-88
2022/10/30 03:31:02;;;;;;;15.50;6.67;;;9.40;99.90;;;;;;5057770;28;20033;-87
2022/10/30 03:33:28;;;;;;;18.83;7.20;;;9.50;99.90;;;;;;5058887;28;20404;-87
2022/10/30 03:35:55;;;;;;;14.97;7.00;;;9.40;99.90;;;;;;5057577;28;20025;-88
2022/10/30 03:38:20;;;;;;;12.97;5.67;;;9.40;99.90;;;;;;5058993;28;20101;-88
2022/10/30 03:40:46;;;;;;;17.48;6.53;;;9.40;99.90;;;;;;5058920;28;20113;-88
2022/10/30 03:43:11;;;;;;;15.30;5.47;;;9.40;99.90;;;;;;5058813;28;20466;-88
2022/10/30 03:45:37;;;;;;;16.57;5.77;;;9.40;99.90;;;;;;5059205;28;20021;-88
2022/10/30 03:48:05;;;;;;;9.80;5.50;;;9.30;99.90;;;;;;5058794;28;20025;-88
2022/10/30 03:50:31;;;;;;;13.77;6.03;;;9.30;99.90;;;;;;5059216;28;20120;-88
2022/10/30 03:52:57;;;;;;;15.10;5.80;;;9.20;99.90;;;;;;5057477;28;20082;-88
2022/10/30 03:55:24;;;;;;;19.30;6.47;;;9.20;99.90;;;;;;5059157;28;20020;-88
2022/10/30 03:57:50;;;;;;;14.70;5.70;;;9.10;99.90;;;;;;5057414;28;20021;-88
2022/10/30 04:00:17;;;;;;;20.57;6.20;;;9.10;99.90;;;;;;5055811;28;20143;-88
2022/10/30 04:02:49;;;;;;;20.83;6.83;;;9.10;99.90;;;;;;5055552;28;20021;-88
2022/10/30 04:05:20;;;;;;;18.43;6.03;;;9.10;99.90;;;;;;5055423;28;20466;-88
2022/10/30 04:07:46;;;;;;;14.33;5.70;;;9.00;99.90;;;;;;5054505;28;20029;-88
2022/10/30 04:10:13;;;;;;;14.73;6.00;;;9.00;99.90;;;;;;5055662;28;20032;-88
2022/10/30 04:12:39;;;;;;;20.63;5.80;;;9.00;99.90;;;;;;5055626;28;20086;-88
2022/10/30 04:15:06;;;;;;;19.13;5.80;;;9.00;99.90;;;;;;5055660;28;20033;-88
2022/10/30 04:17:32;;;;;;;16.73;6.40;;;9.00;99.90;;;;;;5055776;28;20048;-88
2022/10/30 04:19:57;;;;;;;17.53;7.07;;;9.00;99.90;;;;;;5055946;28;20084;-88
2022/10/30 04:22:23;;;;;;;15.13;6.67;;;9.00;99.90;;;;;;5055618;28;20021;-87
2022/10/30 04:24:49;;;;;;;18.20;6.07;;;9.00;99.90;;;;;;5055407;28;20130;-88
2022/10/30 04:27:15;;;;;;;14.20;6.50;;;8.90;99.90;;;;;;5055526;28;20035;-88
2022/10/30 04:29:41;;;;;;;14.33;6.27;;;8.90;99.90;;;;;;5055004;28;20032;-88
2022/10/30 04:32:08;;;;;;;17.63;6.57;;;8.90;99.90;;;;;;5055633;28;20355;-88
2022/10/30 04:34:33;;;;;;;17.53;6.73;;;8.90;99.90;;;;;;5055717;28;20076;-88
2022/10/30 04:36:59;;;;;;;19.00;5.57;;;8.90;99.90;;;;;;5055419;28;20029;-88
2022/10/30 04:39:25;;;;;;;18.23;6.03;;;8.90;99.90;;;;;;5055601;28;20374;-88
2022/10/30 04:41:50;;;;;;;16.90;5.87;;;8.80;99.90;;;;;;5055409;28;20024;-88
2022/10/30 04:44:16;;;;;;;12.20;5.30;;;8.80;99.90;;;;;;5055102;28;20107;-88
2022/10/30 04:46:41;;;;;;;12.87;6.30;;;8.80;99.90;;;;;;5054982;28;20040;-88
2022/10/30 04:49:07;;;;;;;16.93;6.00;;;8.80;99.90;;;;;;5055051;28;20513;-85
2022/10/30 04:51:33;;;;;;;15.83;6.70;;;8.80;99.90;;;;;;5055141;28;20049;-85
2022/10/30 04:53:58;;;;;;;14.50;6.23;;;8.80;99.90;;;;;;5054882;28;20114;-85
2022/10/30 04:56:24;;;;;;;12.37;5.37;;;8.80;99.90;;;;;;5054741;28;20376;-84
2022/10/30 04:58:50;;;;;;;17.97;6.53;;;8.80;99.90;;;;;;5054654;28;20037;-84
2022/10/30 05:01:15;;;;;;;13.40;5.70;;;8.80;99.90;;;;;;5053360;28;20021;-84
2022/10/30 05:03:41;;;;;;;15.77;6.37;;;8.80;99.90;;;;;;5055096;28;20041;-87
2022/10/30 05:06:16;;;;;;;13.20;5.70;;;8.80;99.90;;;;;;5053330;28;20033;-85
2022/10/30 05:08:41;;;;;;;12.45;6.00;;;8.80;99.90;;;;;;5054109;28;20460;-84
2022/10/30 05:11:07;;;;;;;16.00;6.50;;;8.80;99.90;;;;;;5055106;28;20113;-84
2022/10/30 05:13:32;;;;;;;14.03;6.70;;;8.80;99.90;;;;;;5054331;28;20029;-84
2022/10/30 05:15:58;;;;;;;15.47;6.13;;;8.80;99.90;;;;;;5054409;28;20032;-85
2022/10/30 05:18:23;;;;;;;14.33;5.90;;;8.70;99.90;;;;;;5054331;28;20123;-85
2022/10/30 05:20:49;;;;;;;13.07;5.73;;;8.70;99.90;;;;;;5054366;28;20036;-85
2022/10/30 05:23:14;;;;;;;16.10;5.93;;;8.70;99.90;;;;;;5054466;28;20096;-84
2022/10/30 05:25:40;;;;;;;14.47;5.93;;;8.60;99.90;;;;;;5054214;28;20371;-84
2022/10/30 05:28:06;;;;;;;13.20;6.47;;;8.60;99.90;;;;;;5069469;28;20121;-84
2022/10/30 05:30:33;;;;;;;13.50;5.73;;;8.60;99.90;;;;;;5054149;28;20044;-85
2022/10/30 05:33:00;;;;;;;14.50;7.60;;;8.60;99.90;;;;;;5052908;28;20363;-85
2022/10/30 05:35:26;;;;;;;20.33;7.07;;;8.60;99.90;;;;;;5047104;28;20017;-84
2022/10/30 05:37:52;;;;;;;17.63;6.03;;;8.60;99.90;;;;;;5034142;28;20104;-84
2022/10/30 05:40:17;;;;;;;15.80;6.03;;;8.60;99.90;;;;;;5036682;28;20093;-85
2022/10/30 05:42:47;;;;;;;15.97;5.73;;;8.50;99.90;;;;;;5053787;28;20052;-84
2022/10/30 05:45:13;;;;;;;13.40;6.27;;;8.50;99.90;;;;;;5054073;28;20458;-88
2022/10/30 05:47:39;;;;;;;15.63;5.83;;;8.50;99.90;;;;;;5037702;28;20108;-88
2022/10/30 05:50:05;;;;;;;13.53;5.50;;;8.40;99.90;;;;;;5034069;28;20117;-88
2022/10/30 05:52:31;;;;;;;13.27;5.70;;;8.50;99.90;;;;;;5033564;28;20049;-88
2022/10/30 05:54:57;;;;;;;12.63;5.33;;;8.40;99.90;;;;;;5033961;28;20104;-88
2022/10/30 05:57:22;;;;;;;15.47;5.73;;;8.40;99.90;;;;;;5032592;28;20025;-84
2022/10/30 05:59:48;;;;;;;15.20;5.00;;;8.40;99.90;;;;;;5031425;28;20022;-84
2022/10/30 06:02:15;;;;;;;15.30;5.53;;;8.30;99.90;;;;;;5031673;28;20026;-84
2022/10/30 06:04:41;;;;;;;27.63;7.23;;;8.30;99.90;;;;;;5045724;28;20029;-84
2022/10/30 06:07:06;;;;;;;9.40;4.53;;;8.20;99.90;;;;;;5064334;28;20067;-84
2022/10/30 06:09:32;;;;;;;20.80;5.07;;;8.20;99.90;;;;;;5051089;28;20040;-84
2022/10/30 06:11:57;;;;;;;12.13;4.97;;;8.30;99.90;;;;;;5051012;28;20090;-84
2022/10/30 06:14:23;;;;;;;18.43;4.73;;;8.30;99.90;;;;;;5051106;28;20127;-84
2022/10/30 06:16:48;;;;;;;14.60;5.40;;;8.40;99.90;;;;;;5050731;28;20029;-84
2022/10/30 06:19:14;;;;;;;15.43;4.70;;;8.40;99.90;;;;;;5030547;28;20056;-84
2022/10/30 06:21:39;;;;;;;9.00;4.33;;;8.40;99.90;;;;;;5050179;28;20033;-84
2022/10/30 06:24:05;;;;;;;17.10;4.73;;;8.50;99.90;;;;;;5050941;28;20466;-84
2022/10/30 06:26:31;;;;;;;12.93;5.27;;;8.50;99.90;;;;;;5051004;28;20020;-84
2022/10/30 06:28:57;;;;;;;12.93;5.13;;;8.60;99.90;;;;;;5050937;28;20065;-84
2022/10/30 06:31:22;;;;;;;14.57;4.33;;;8.70;99.90;;;;;;5048986;28;20043;-84
2022/10/30 06:33:48;;;;;;;12.23;4.27;;;8.70;99.90;;;;;;5031594;28;20037;-83
2022/10/30 06:36:13;;;;;;;13.00;5.13;;;8.70;99.90;;;;;;5050623;28;20044;-93
2022/10/30 06:38:39;;;;;;;17.60;5.47;;;8.80;99.90;;;;;;5051590;28;20028;-84
2022/10/30 06:41:04;;;;;;;13.87;4.60;;;8.90;99.90;;;;;;5051651;28;20025;-83
2022/10/30 06:43:30;;;;;;;14.57;5.40;;;8.90;99.90;;;;;;5050886;28;20027;-83
2022/10/30 06:45:59;;;;;;;15.30;5.00;;;9.00;99.90;;;;;;5051055;28;20421;-84
2022/10/30 06:48:24;;;;;;;13.40;4.80;;;9.10;99.90;;;;;;5050705;28;20132;-84
2022/10/30 06:50:58;;;;;;;13.13;4.30;;;9.10;99.90;;;;;;5050366;28;20199;-84
2022/10/30 06:53:24;;;;;;;13.70;4.97;;;9.20;99.90;;;;;;5050772;28;20033;-84
2022/10/30 06:55:54;;;;;;;12.47;4.50;;;9.20;99.90;;;;;;5050973;28;20039;-84
2022/10/30 06:58:20;;;;;;;17.20;5.10;;;9.30;99.90;;;;;;5050811;28;20036;-84
2022/10/30 07:00:45;;;;;;;17.00;4.90;;;9.40;99.90;;;;;;5050804;28;20029;-84
2022/10/30 07:03:11;;;;;;;11.80;5.20;;;9.50;99.90;;;;;;5050555;28;20110;-84
2022/10/30 07:05:36;;;;;;;22.77;5.00;;;9.60;99.90;;;;;;5050687;28;20048;-84
2022/10/30 07:08:02;;;;;;;12.80;6.33;;;9.70;99.90;;;;;;5050827;28;20021;-84
2022/10/30 07:10:28;;;;;;;17.90;5.37;;;9.70;99.90;;;;;;5049225;28;20021;-84
2022/10/30 07:12:54;;;;;;;12.90;4.17;;;9.80;99.90;;;;;;5050274;28;20079;-84
2022/10/30 07:15:20;;;;;;;16.45;4.47;;;9.90;99.90;;;;;;5050933;28;20119;-84
2022/10/30 07:17:58;;;;;;;15.03;4.40;;;10.00;99.90;;;;;;5050340;28;20033;-84
2022/10/30 07:20:25;;;;;;;13.90;4.00;;;10.00;99.90;;;;;;5053420;28;20025;-90
2022/10/30 07:22:51;;;;;;;11.60;4.63;;;10.10;99.90;;;;;;5053930;28;20025;-91
2022/10/30 07:25:17;;;;;;;18.63;4.30;;;10.20;99.90;;;;;;5053704;28;20044;-90
2022/10/30 07:27:47;;;;;;;15.18;5.00;;;10.30;99.90;;;;;;5053236;28;20063;-91
2022/10/30 07:30:14;;;;;;;8.82;4.05;;;10.40;99.90;;;;;;5053262;28;20032;-91
2022/10/30 07:32:40;;;;;;;19.77;4.73;;;10.50;99.90;;;;;;5054351;28;20083;-91
2022/10/30 07:35:07;;;;;;;13.35;4.05;;;10.60;99.90;;;;;;5057388;28;20116;-91
2022/10/30 07:37:32;;;;;;;22.27;5.67;;;10.70;99.90;;;;;;5057130;28;20500;-90
2022/10/30 07:39:58;;;;;;;13.30;4.07;;;10.80;99.90;;;;;;5057444;28;20018;-91
2022/10/30 07:42:24;;;;;;;16.17;4.40;;;10.90;99.90;;;;;;5057455;28;20025;-91
2022/10/30 07:44:49;;;;;;;14.27;4.18;;;11.10;99.90;;;;;;5056050;28;20056;-90
2022/10/30 07:47:15;;;;;;;22.75;4.40;;;11.20;99.90;;;;;;5057442;28;20025;-91
2022/10/30 07:49:40;;;;;;;14.50;4.43;;;11.30;99.90;;;;;;5066383;28;20032;-91
2022/10/30 07:52:06;;;;;;;12.18;4.10;;;11.50;99.90;;;;;;5077089;28;20040;-91
2022/10/30 07:54:31;;;;;;;17.60;4.53;;;11.60;99.90;;;;;;5077259;28;20043;-90
2022/10/30 07:56:57;;;;;;;11.52;4.60;;;11.70;99.90;;;;;;5074668;28;20110;-91
2022/10/30 07:59:24;;;;;;;15.38;4.63;;;11.80;99.90;;;;;;5056761;28;20465;-91
2022/10/30 08:01:50;;;;;;;14.45;3.83;;;12.00;99.90;;;;;;5062492;28;20029;-91
2022/10/30 08:04:16;;;;;;;10.25;4.38;;;12.10;99.90;;;;;;5073811;28;20109;-91
2022/10/30 08:06:42;;;;;;;14.68;4.57;;;12.20;99.90;;;;;;5069403;28;20037;-91
2022/10/30 08:09:07;;;;;;;17.83;5.05;;;12.40;99.90;;;;;;5056731;28;20032;-89
2022/10/30 08:11:33;;;;;;;13.68;4.63;;;12.60;99.90;;;;;;5056766;28;20025;-91
2022/10/30 08:13:59;;;;;;;11.25;4.15;;;12.80;99.90;;;;;;5059947;28;20036;-92
2022/10/30 08:16:24;;;;;;;14.45;4.35;;;12.90;99.90;;;;;;5076654;28;20074;-88
2022/10/30 08:18:50;;;;;;;16.17;4.40;;;13.10;99.90;;;;;;5068349;28;20067;-87
2022/10/30 08:21:15;;;;;;;16.50;4.40;;;13.20;99.90;;;;;;5070113;28;20021;-89
2022/10/30 08:23:41;;;;;;;19.60;4.60;;;13.40;99.90;;;;;;5054821;28;20458;-89
2022/10/30 08:26:07;;;;;;;14.40;4.10;;;13.60;99.90;;;;;;5056158;28;20068;-91
2022/10/30 08:28:32;;;;;;;11.68;3.90;;;13.70;99.90;;;;;;5055807;28;20037;-90
2022/10/30 08:30:59;;;;;;;15.23;3.95;;;13.80;99.90;;;;;;5051254;28;20053;-89
2022/10/30 08:33:25;;;;;;;15.90;4.20;;;14.00;99.90;;;;;;5051565;28;20104;-89
2022/10/30 08:35:55;;;;;;;12.45;3.85;;;14.00;99.90;;;;;;5055823;28;20546;-89
2022/10/30 08:38:21;;;;;;;13.38;4.15;;;14.20;99.90;;;;;;5054244;28;20115;-89
2022/10/30 08:40:47;;;;;;;9.38;4.15;;;14.40;99.90;;;;;;5055219;28;20056;-90
2022/10/30 08:43:13;;;;;;;15.85;4.28;;;14.50;99.90;;;;;;5054772;28;20071;-89
2022/10/30 08:45:39;;;;;;;11.95;4.13;;;14.60;99.90;;;;;;5055018;28;20036;-89
2022/10/30 08:48:05;;;;;;;12.18;4.68;;;14.70;99.90;;;;;;5055348;28;20090;-90
2022/10/30 08:50:32;;;;;;;10.23;3.90;;;14.80;99.90;;;;;;5054875;28;20063;-90
2022/10/30 08:53:03;;;;;;;14.80;5.00;;;14.90;99.90;;;;;;5053845;28;20064;-90
2022/10/30 08:55:30;;;;;;;16.05;4.78;;;14.90;99.90;;;;;;5055068;28;20395;-90
2022/10/30 08:57:56;;;;;;;12.50;4.00;;;15.10;99.90;;;;;;5054710;28;20370;-91
2022/10/30 09:00:21;;;;;;;13.73;4.28;;;15.10;99.90;;;;;;5049161;28;20029;-91
2022/10/30 09:02:47;;;;;;;15.55;4.50;;;15.20;99.90;;;;;;5055085;28;20092;-91
2022/10/30 09:05:13;;;;;;;16.88;4.30;;;15.30;99.90;;;;;;5055073;28;20067;-91
2022/10/30 09:07:38;;;;;;;13.38;4.10;;;15.40;99.90;;;;;;5055026;28;20723;-91
2022/10/30 09:10:04;;;;;;;15.13;4.75;;;15.40;99.90;;;;;;5054481;28;20370;-92
2022/10/30 09:12:30;;;;;;;17.27;4.78;;;15.50;99.90;;;;;;5054636;28;20386;-90
2022/10/30 09:14:56;;;;;;;11.32;4.35;;;15.60;99.90;;;;;;5055028;28;20102;-91
2022/10/30 09:17:21;;;;;;;12.85;3.53;;;15.70;99.90;;;;;;5054661;28;20450;-91
2022/10/30 09:19:47;;;;;;;13.07;3.92;;;15.80;99.90;;;;;;5054491;28;20111;-91
2022/10/30 09:22:12;;;;;;;10.55;3.67;;;15.90;99.90;;;;;;5054988;28;20021;-91
2022/10/30 09:24:38;;;;;;;12.63;3.58;;;16.00;99.90;;;;;;5054988;28;20461;-91
2022/10/30 09:27:05;;;;;;;12.70;3.45;;;16.10;99.90;;;;;;5055128;28;20013;-92
2022/10/30 09:29:31;;;;;;;10.82;3.45;;;16.10;99.90;;;;;;5054858;28;20390;-91
2022/10/30 09:32:00;;;;;;;14.30;3.85;;;16.20;99.90;;;;;;5054862;28;20029;-90
2022/10/30 09:34:29;;;;;;;11.98;3.67;;;16.30;99.90;;;;;;5054754;28;20377;-90
2022/10/30 09:36:55;;;;;;;16.00;4.18;;;16.40;99.90;;;;;;5055392;28;20098;-93
2022/10/30 09:39:20;;;;;;;18.67;4.40;;;16.40;99.90;;;;;;5054577;28;20482;-90
2022/10/30 09:41:59;;;;;;;10.88;4.55;;;16.50;99.90;;;;;;5054922;28;20036;-95
2022/10/30 09:44:46;;;;;;;13.65;3.95;;;16.60;99.90;;;;;;5056445;28;20075;-91
2022/10/30 09:47:22;;;;;;;14.82;3.40;;;16.70;99.90;;;;;;5054223;28;20025;-92
2022/10/30 09:50:17;;;;;;;17.92;4.22;;;16.80;99.90;;;;;;5054212;28;20021;-91
2022/10/30 09:53:14;;;;;;;13.48;3.72;;;16.90;99.90;;;;;;5054319;28;20116;-91
2022/10/30 09:55:59;;;;;;;14.50;3.83;;;17.00;99.90;;;;;;5053791;28;20036;-91
2022/10/30 09:58:30;;;;;;;;;;;17.20;99.90;;;;;;5054199;28;20478;-91
2022/10/30 10:01:08;;;;;;;13.00;4.90;;;17.40;99.90;;;;;;5053668;28;19904;-92
2022/10/30 10:03:57;;;;;;;11.65;3.63;;;17.40;99.90;;;;;;5053529;28;20025;-91
2022/10/30 10:06:24;;;;;;;12.93;4.03;;;17.50;99.90;;;;;;5053520;28;20021;-92
2022/10/30 10:09:00;;;;;;;17.67;3.90;;;17.70;99.90;;;;;;5053646;28;20082;-92
2022/10/30 10:11:30;;;;;;;14.45;3.95;;;17.80;99.90;;;;;;5052113;28;20021;-92
2022/10/30 10:14:11;;;;;;;14.85;3.63;;;18.00;99.90;;;;;;5053800;28;20446;-92
2022/10/30 10:16:39;;;;;;;17.08;4.28;;;18.20;99.90;;;;;;5051868;28;20020;-91
2022/10/30 10:19:09;;;;;;;11.43;3.63;;;18.40;99.90;;;;;;5053028;28;20025;-92
2022/10/30 10:21:41;;;;;;;16.60;4.28;;;18.50;99.90;;;;;;5053137;28;20045;-91
2022/10/30 10:24:20;;;;;;;14.65;3.95;;;18.70;99.90;;;;;;5053357;28;20025;-91
2022/10/30 10:26:49;;;;;;;15.45;3.78;;;18.80;99.90;;;;;;5053084;28;20021;-92
2022/10/30 10:29:42;;;;;;;10.82;4.30;;;19.00;99.90;;;;;;5052980;28;20025;-92
2022/10/30 10:32:37;;;;;;;14.27;4.00;;;19.10;99.90;;;;;;5053249;28;20521;-92
2022/10/30 10:35:30;;;;;;;17.40;4.30;;;19.30;99.90;;;;;;5053544;28;20032;-90
2022/10/30 10:38:17;;;;;;;19.27;3.80;;;19.40;99.90;;;;;;5052825;28;20404;-89
2022/10/30 10:41:18;;;;;;;16.67;3.83;;;19.60;99.90;;;;;;5051648;28;20440;-90
2022/10/30 10:43:55;;;;;;;19.35;4.35;;;19.70;99.90;;;;;;5053198;28;20021;-89
2022/10/30 10:46:36;;;;;;;15.55;4.70;;;19.80;99.90;;;;;;5052909;28;20021;-90
2022/10/30 10:49:27;;;;;;;12.18;3.80;;;19.90;99.90;;;;;;5052795;28;20432;-89
2022/10/30 10:52:05;;;;;;;10.05;3.28;;;20.10;99.90;;;;;;5051226;28;20378;-89
2022/10/30 10:54:43;;;;;;;16.25;3.35;;;20.20;99.90;;;;;;5052982;28;20041;-89
2022/10/30 10:57:26;;;;;;;11.55;3.40;;;20.20;99.90;;;;;;5053294;28;20056;-90
2022/10/30 10:59:57;;;;;;;14.98;4.28;;;20.30;99.90;;;;;;5052939;28;20037;-89
2022/10/30 11:02:47;;;;;;;12.73;3.95;;;20.40;99.90;;;;;;5052961;28;20025;-90
2022/10/30 11:05:35;;;;;;;18.52;5.63;;;20.40;99.90;;;;;;5052570;28;20065;-89
2022/10/30 11:08:15;;;;;;;14.52;4.10;;;20.50;99.90;;;;;;5055410;28;20023;-89
2022/10/30 11:10:41;;;;;;;13.70;3.88;;;20.50;99.90;;;;;;5056946;28;20584;-90
2022/10/30 11:13:12;;;;;;;13.77;4.32;;;20.60;99.90;;;;;;5056987;28;20057;-89
2022/10/30 11:15:55;;;;;;;15.60;4.18;;;20.60;99.90;;;;;;5056537;28;20024;-90
2022/10/30 11:18:21;;;;;;;15.30;4.45;;;20.70;99.90;;;;;;5055611;28;20588;-89
2022/10/30 11:20:56;;;;;;;14.00;3.65;;;20.80;99.90;;;;;;5056642;28;20104;-89
2022/10/30 11:23:40;;;;;;;19.05;8.25;;;20.90;99.90;;;;;;5056448;28;20031;-89
2022/10/30 11:26:17;;;;;;;16.63;4.20;;;21.00;99.90;;;;;;5056316;28;20504;-89
2022/10/30 11:28:56;;;;;;;14.98;4.10;;;21.10;99.90;;;;;;5056218;28;20151;-89
2022/10/30 11:31:33;;;;;;;13.32;3.70;;;21.10;99.90;;;;;;5056495;28;20021;-89
2022/10/30 11:34:11;;;;;;;18.30;4.68;;;21.20;99.90;;;;;;5056474;28;20029;-89
2022/10/30 11:36:37;;;;;;;14.60;4.38;;;21.30;99.90;;;;;;5056518;28;20415;-89
2022/10/30 11:39:09;;;;;;;20.13;3.83;;;21.30;99.90;;;;;;5056121;28;20033;-89
2022/10/30 11:41:35;;;;;;;13.95;3.95;;;21.30;99.90;;;;;;5055929;28;20029;-89
2022/10/30 11:44:01;;;;;;;16.73;3.83;;;21.30;99.90;;;;;;5055900;28;20035;-89
2022/10/30 11:46:27;;;;;;;12.50;3.70;;;21.40;99.90;;;;;;5055863;28;20021;-89
2022/10/30 11:48:55;;;;;;;16.60;4.50;;;21.40;99.90;;;;;;5056234;28;20039;-89
2022/10/30 11:51:37;;;;;;;15.45;3.38;;;21.60;99.90;;;;;;5055666;28;20044;-89
2022/10/30 11:54:03;;;;;;;10.27;3.92;;;21.60;99.90;;;;;;5055990;28;20032;-89
2022/10/30 11:56:32;;;;;;;21.75;4.40;;;21.60;99.90;;;;;;5056069;28;20021;-89
2022/10/30 11:59:00;;;;;;;15.10;4.53;;;21.70;99.90;;;;;;5055557;28;20029;-88
2022/10/30 12:01:37;;;;;;;12.57;3.90;;;21.60;99.90;;;;;;5055954;28;20017;-89
2022/10/30 12:04:24;;;;;;;11.82;3.92;;;21.60;99.90;;;;;;5055981;28;20095;-89
2022/10/30 12:07:17;;;;;;;12.07;3.75;;;21.70;99.90;;;;;;5055634;28;20029;-89
2022/10/30 12:09:45;;;;;;;12.15;3.90;;;21.70;99.90;;;;;;5055592;28;20064;-89
2022/10/30 12:12:41;;;;;;;19.75;4.15;;;21.90;99.90;;;;;;5056123;28;20043;-89
2022/10/30 12:15:27;;;;;;;16.58;4.47;;;21.90;99.90;;;;;;5055796;28;20048;-88
2022/10/30 12:17:57;;;;;;;30.30;5.63;;;22.10;99.90;;;;;;5054636;28;20060;-88
2022/10/30 12:20:23;;;;;;;13.85;4.85;;;22.20;99.90;;;;;;5055219;28;20120;-89
2022/10/30 12:22:48;;;;;;;15.40;4.78;;;22.30;99.90;;;;;;5055874;28;20123;-88
2022/10/30 12:25:28;;;;;;;13.57;3.78;;;22.50;99.90;;;;;;5055522;28;20405;-89
2022/10/30 12:28:20;;;;;;;15.45;5.03;;;22.60;99.90;;;;;;5055780;28;20052;-88
2022/10/30 12:30:59;;;;;;;16.30;4.07;;;22.60;99.90;;;;;;5055464;28;20029;-89
2022/10/30 12:33:33;;;;;;;12.63;3.85;;;22.70;99.90;;;;;;5055691;28;20017;-88
2022/10/30 12:36:02;;;;;;;16.65;3.80;;;22.80;99.90;;;;;;5055480;28;20021;-88
2022/10/30 12:38:50;;;;;;;15.18;3.80;;;22.80;99.90;;;;;;5055550;28;20369;-89
2022/10/30 12:41:33;;;;;;;16.08;4.05;;;22.90;99.90;;;;;;5054269;28;20032;-89
2022/10/30 12:44:10;;;;;;;13.23;3.38;;;22.80;99.90;;;;;;5053483;28;20071;-79
2022/10/30 12:46:52;;;;;;;11.35;4.00;;;22.80;99.90;;;;;;5052243;28;20090;-78
2022/10/30 12:49:20;;;;;;;17.90;4.47;;;22.70;99.90;;;;;;5050492;28;20125;-79
2022/10/30 12:52:00;;;;;;;14.73;4.18;;;22.50;99.90;;;;;;5051445;28;20044;-79
2022/10/30 12:54:47;;;;;;;12.75;3.83;;;22.60;99.90;;;;;;5052307;28;20059;-79